Time;durP1;ratioP1;P1;durP2;ratioP2;P2;SDS_P1;SDS_P2;PMS_P1;PMS_P2;Temp;Humidity;BMP_temperature;BMP_pressure;BME280_temperature;BME280_humidity;BME280_pressure;Samples;Min_cycle;Max_cycle;Signal;HPM_P1;HPM_P2
2022/08/31 00:04:31;;;;;;;;;;;;;;;;;;5055223;28;20426;-80
2022/08/31 00:06:57;;;;;;;;;;;;;;;;;;5055541;28;19913;-81
2022/08/31 00:09:23;;;;;;;;;;;;;;;;;;5055597;28;19908;-80
2022/08/31 00:11:49;;;;;;;;;;;;;;;;;;5055473;28;20364;-82
2022/08/31 00:14:15;;;;;;;;;;;;;;;;;;5055127;28;19909;-83
2022/08/31 00:16:41;;;;;;;;;;;;;;;;;;5055317;28;20003;-81
2022/08/31 00:19:07;;;;;;;;;;;;;;;;;;5055435;28;20376;-79
2022/08/31 00:21:33;;;;;;;;;;;;;;;;;;5055308;28;20361;-81
2022/08/31 00:23:59;;;;;;;;;;;;;;;;;;5054925;28;20353;-80
2022/08/31 00:26:25;;;;;;;;;;;;;;;;;;5055074;28;20343;-80
2022/08/31 00:28:51;;;;;;;;;;;;;;;;;;5055157;28;19909;-82
2022/08/31 00:31:17;;;;;;;;;;;;;;;;;;5055181;28;20394;-80
2022/08/31 00:33:43;;;;;;;;;;;;;;;;;;5054863;28;19909;-82
2022/08/31 00:36:09;;;;;;;;;;;;;;;;;;5055054;28;20384;-82
2022/08/31 00:38:35;;;;;;;;;;;;;;;;;;5054894;28;19940;-80
2022/08/31 00:41:01;;;;;;;;;;;;;;;;;;5054959;28;20374;-83
2022/08/31 00:43:27;;;;;;;;;;;;;;;;;;5054639;28;19956;-77
2022/08/31 00:45:52;;;;;;;;;;;;;;;;;;5036856;28;19964;-80
2022/08/31 00:48:18;;;;;;;;;;;;;;;;;;5054563;28;19913;-78
2022/08/31 00:50:44;;;;;;;;;;;;;;;;;;5053957;28;19919;-80
2022/08/31 00:53:10;;;;;;;;;;;;;;;;;;5054755;28;19909;-80
2022/08/31 00:55:36;;;;;;;;;;;;;;;;;;5054193;28;19913;-78
2022/08/31 00:58:04;;;;;;;;;;;;;;;;;;5053829;28;20204;-81
2022/08/31 01:00:30;;;;;;;;;;;;;;;;;;5055317;28;20009;-78
2022/08/31 01:02:56;;;;;;;;;;;;;;;;;;5054422;28;19943;-79
2022/08/31 01:05:22;;;;;;;;;;;;;;;;;;5054100;28;19909;-77
2022/08/31 01:07:48;;;;;;;;;;;;;;;;;;5054317;28;19916;-83
2022/08/31 01:10:14;;;;;;;;;;;;;;;;;;5054457;28;19915;-78
2022/08/31 01:12:40;;;;;;;;;;;;;;;;;;5054361;28;19954;-79
2022/08/31 01:15:05;;;;;;;;;;;;;;;;;;5053779;28;19958;-78
2022/08/31 01:17:31;;;;;;;;;;;;;;;;;;5054375;28;19916;-80
2022/08/31 01:19:57;;;;;;;;;;;;;;;;;;5054127;28;19952;-80
2022/08/31 01:22:23;;;;;;;;;;;;;;;;;;5054397;28;20339;-82
2022/08/31 01:24:49;;;;;;;;;;;;;;;;;;5053511;28;20369;-80
2022/08/31 01:27:15;;;;;;;;;;;;;;;;;;5053850;28;19919;-79
2022/08/31 01:29:41;;;;;;;;;;;;;;;;;;5069391;28;19909;-80
2022/08/31 01:32:07;;;;;;;;;;;;;;;;;;5053975;28;19920;-83
2022/08/31 01:34:33;;;;;;;;;;;;;;;;;;5053862;28;19909;-83
2022/08/31 01:36:59;;;;;;;;;;;;;;;;;;5069211;28;20344;-82
2022/08/31 01:39:25;;;;;;;;;;;;;;;;;;5053791;28;20372;-81
2022/08/31 01:41:52;;;;;;;;;;;;;;;;;;5069079;28;19909;-81
2022/08/31 01:44:18;;;;;;;;;;;;;;;;;;5053454;28;19908;-81
2022/08/31 01:46:44;;;;;;;;;;;;;;;;;;5053702;28;19912;-82
2022/08/31 01:49:10;;;;;;;;;;;;;;;;;;5053506;28;19971;-80
2022/08/31 01:51:36;;;;;;;;;;;;;;;;;;5053464;28;19923;-81
2022/08/31 01:54:02;;;;;;;;;;;;;;;;;;5053282;28;19909;-80
2022/08/31 01:56:28;;;;;;;;;;;;;;;;;;5053566;28;19916;-80
2022/08/31 01:58:54;;;;;;;;;;;;;;;;;;5054130;28;19944;-81
2022/08/31 02:01:20;;;;;;;;;;;;;;;;;;5053363;28;19920;-81
2022/08/31 02:03:46;;;;;;;;;;;;;;;;;;5053019;28;19930;-82
2022/08/31 02:06:12;;;;;;;;;;;;;;;;;;5053333;28;20280;-78
2022/08/31 02:08:38;;;;;;;;;;;;;;;;;;5053436;28;19936;-81
2022/08/31 02:11:04;;;;;;;;;;;;;;;;;;5053339;28;20288;-81
2022/08/31 02:13:29;;;;;;;;;;;;;;;;;;5053349;28;19909;-81
2022/08/31 02:15:55;;;;;;;;;;;;;;;;;;5052832;28;20021;-78
2022/08/31 02:18:21;;;;;;;;;;;;;;;;;;5053281;28;20373;-80
2022/08/31 02:20:47;;;;;;;;;;;;;;;;;;5053359;28;20353;-81
2022/08/31 02:23:13;;;;;;;;;;;;;;;;;;5053215;28;20400;-83
2022/08/31 02:25:39;;;;;;;;;;;;;;;;;;5052908;28;19909;-79
2022/08/31 02:28:05;;;;;;;;;;;;;;;;;;5052789;28;19920;-82
2022/08/31 02:30:31;;;;;;;;;;;;;;;;;;5053212;28;19932;-81
2022/08/31 02:32:57;;;;;;;;;;;;;;;;;;5053207;28;20352;-80
2022/08/31 02:35:23;;;;;;;;;;;;;;;;;;5052686;28;19916;-81
2022/08/31 02:37:49;;;;;;;;;;;;;;;;;;5068560;28;19915;-82
2022/08/31 02:40:15;;;;;;;;;;;;;;;;;;5052687;28;19909;-79
2022/08/31 02:42:41;;;;;;;;;;;;;;;;;;5053135;28;19908;-79
2022/08/31 02:45:07;;;;;;;;;;;;;;;;;;5052633;28;20355;-80
2022/08/31 02:47:33;;;;;;;;;;;;;;;;;;5052934;28;20360;-79
2022/08/31 02:49:59;;;;;;;;;;;;;;;;;;5052832;28;19920;-80
2022/08/31 02:52:25;;;;;;;;;;;;;;;;;;5053029;28;19909;-80
2022/08/31 02:54:51;;;;;;;;;;;;;;;;;;5052552;28;19959;-81
2022/08/31 02:57:17;;;;;;;;;;;;;;;;;;5052894;28;19958;-79
2022/08/31 02:59:43;;;;;;;;;;;20.20;99.90;;;;;;5053438;28;19916;-80
2022/08/31 03:02:08;;;;;;;;;;;20.10;99.90;;;;;;5052835;28;19942;-82
2022/08/31 03:04:34;;;;;;;;;;;20.10;99.90;;;;;;5052580;28;19916;-80
2022/08/31 03:06:59;;;;;;;;;;;20.10;99.90;;;;;;5034924;28;20371;-79
2022/08/31 03:09:25;;;;;;;;;;;20.00;99.90;;;;;;5052758;28;19998;-81
2022/08/31 03:11:50;;;;;;;;;;;19.90;99.90;;;;;;5052876;28;19909;-81
2022/08/31 03:14:16;;;;;;;;;;;19.90;99.90;;;;;;5056221;28;19993;-81
2022/08/31 03:16:42;;;;;;;;;;;19.80;99.90;;;;;;5056633;28;20441;-83
2022/08/31 03:19:08;;;;;;;;;;;19.80;99.90;;;;;;5056462;28;19924;-82
2022/08/31 03:21:33;;;;;;;;;;;19.70;99.90;;;;;;5056467;28;19991;-80
2022/08/31 03:23:59;;;;;;;;;;;19.90;99.90;;;;;;5056587;28;19909;-81
2022/08/31 03:26:25;;;;;;;;;;;20.10;99.90;;;;;;5056021;28;19909;-79
2022/08/31 03:28:51;;;;;;;;;;;20.00;99.90;;;;;;5056345;28;19915;-78
2022/08/31 03:31:16;;;;;;;;;;;20.00;99.90;;;;;;5056247;28;19920;-80
2022/08/31 03:33:42;;;;;;;;;;;19.90;99.90;;;;;;5056271;28;20426;-81
2022/08/31 03:36:07;;;;;;;;;;;19.90;99.90;;;;;;5055731;28;20012;-78
2022/08/31 03:38:33;;;;;;;;;;;19.80;99.90;;;;;;5055976;28;19916;-79
2022/08/31 03:41:00;;;;;;;;;;;19.70;99.90;;;;;;5056193;28;19954;-80
2022/08/31 03:43:25;;;;;;;;;;;19.70;99.90;;;;;;5037996;28;20292;-82
2022/08/31 03:45:51;;;;;;;;;;;19.60;99.90;;;;;;5055531;28;19909;-80
2022/08/31 03:48:17;;;;;;;;;;;19.70;99.90;;;;;;5055715;28;19924;-79
2022/08/31 03:50:42;;;;;;;;;;;19.60;99.90;;;;;;5055750;28;19913;-80
2022/08/31 03:53:08;;;;;;;;;;;19.50;99.90;;;;;;5038071;28;19984;-79
2022/08/31 03:55:36;;;;;;;;;;;19.60;99.90;;;;;;5055372;28;20265;-79
2022/08/31 03:58:02;;;;;;;;;;;19.70;99.90;;;;;;5055844;28;19916;-78
2022/08/31 04:00:28;;;;;;;;;;;19.70;99.90;;;;;;5038427;28;19999;-80
2022/08/31 04:02:58;;;;;;;;;;;19.60;99.90;;;;;;5055467;28;20016;-81
2022/08/31 04:05:28;;;;;;;;;;;19.60;99.90;;;;;;5055255;28;19915;-82
2022/08/31 04:07:53;;;;;;;;;;;19.50;99.90;;;;;;5055492;28;19920;-80
2022/08/31 04:10:19;;;;;;;;;;;19.60;99.90;;;;;;5055239;28;19909;-83
2022/08/31 04:12:44;;;;;;;;;;;19.50;99.90;;;;;;5055483;28;20163;-79
2022/08/31 04:15:10;;;;;;;;;;;19.50;99.90;;;;;;5055223;28;19955;-77
2022/08/31 04:17:36;;;;;;;;;;;19.30;99.90;;;;;;5055423;28;20095;-79
2022/08/31 04:20:03;;;;;;;;;;;19.50;99.90;;;;;;5055371;28;19909;-79
2022/08/31 04:22:29;;;;;;;;;;;19.70;99.90;;;;;;5055338;28;19975;-80
2022/08/31 04:24:54;;;;;;;;;;;19.70;99.90;;;;;;5053697;28;20316;-80
2022/08/31 04:27:20;;;;;;;;;;;19.80;99.90;;;;;;5054960;28;19935;-81
2022/08/31 04:29:45;;;;;;;;;;;19.80;99.90;;;;;;5055266;28;19938;-79
2022/08/31 04:32:11;;;;;;;;;;;19.90;99.90;;;;;;5055132;28;19915;-79
2022/08/31 04:34:36;;;;;;;;;;;20.00;99.90;;;;;;5054932;28;21413;-81
2022/08/31 04:37:02;;;;;;;;;;;20.00;99.90;;;;;;5055110;28;19938;-79
2022/08/31 04:39:28;;;;;;;;;;;20.00;99.90;;;;;;5054774;28;20393;-81
2022/08/31 04:41:54;;;;;;;;;;;19.90;99.90;;;;;;5054928;28;19909;-81
2022/08/31 04:44:19;;;;;;;;;;;19.80;99.90;;;;;;5054993;28;19946;-82
2022/08/31 04:46:45;;;;;;;;;;;19.80;99.90;;;;;;5054627;28;19920;-80
2022/08/31 04:49:13;;;;;;;;;;;19.90;99.90;;;;;;5047108;28;20266;-82
2022/08/31 04:51:39;;;;;;;;;;;20.00;99.90;;;;;;5034549;28;19909;-82
2022/08/31 04:54:06;;;;;;;;;;;20.00;99.90;;;;;;5034852;28;19909;-82
2022/08/31 04:56:33;;;;;;;;;;;19.90;99.90;;;;;;5034348;28;19909;-79
2022/08/31 04:59:00;;;;;;;;;;;19.80;99.90;;;;;;5034697;28;20386;-81
2022/08/31 05:01:26;;;;;;;;;;;19.70;99.90;;;;;;5035246;28;20388;-78
2022/08/31 05:03:54;;;;;;;;;;;19.90;99.90;;;;;;5034234;28;19916;-82
2022/08/31 05:06:21;;;;;;;;;;;19.90;99.90;;;;;;5030157;28;20314;-80
2022/08/31 05:08:47;;;;;;;;;;;19.90;99.90;;;;;;5034524;28;20386;-80
2022/08/31 05:11:13;;;;;;;;;;;20.00;99.90;;;;;;5034495;28;19948;-80
2022/08/31 05:13:39;;;;;;;;;;;20.00;99.90;;;;;;5034454;28;19991;-78
2022/08/31 05:16:06;;;;;;;;;;;19.80;99.90;;;;;;5033910;28;19956;-83
2022/08/31 05:18:31;;;;;;;;;;;19.80;99.90;;;;;;5034270;28;19909;-82
2022/08/31 05:20:57;;;;;;;;;;;19.50;99.90;;;;;;5034220;28;19909;-81
2022/08/31 05:23:23;;;;;;;;;;;19.40;99.90;;;;;;5034423;28;19909;-79
2022/08/31 05:25:48;;;;;;;;;;;19.50;99.90;;;;;;5033804;28;19917;-79
2022/08/31 05:28:15;;;;;;;;;;;19.60;99.90;;;;;;5034078;28;19920;-80
2022/08/31 05:30:44;;;;;;;;;;;19.50;99.90;;;;;;5034089;28;19909;-80
2022/08/31 05:33:09;;;;;;;;;;;19.60;99.90;;;;;;5034025;28;19936;-80
2022/08/31 05:35:35;;;;;;;;;;;19.60;99.90;;;;;;5033352;28;20389;-83
2022/08/31 05:38:01;;;;;;;;;;;19.70;99.90;;;;;;5033758;28;19936;-78
2022/08/31 05:40:27;;;;;;;;;;;19.90;99.90;;;;;;5034044;28;19913;-79
2022/08/31 05:42:52;;;;;;;;;;;20.00;99.90;;;;;;5033747;28;19949;-83
2022/08/31 05:45:18;;;;;;;;;;;20.10;99.90;;;;;;5033461;28;20029;-82
2022/08/31 05:47:43;;;;;;;;;;;20.10;99.90;;;;;;5033778;28;19952;-80
2022/08/31 05:50:09;;;;;;;;;;;20.10;99.90;;;;;;5049110;28;20412;-82
2022/08/31 05:52:35;;;;;;;;;;;20.10;99.90;;;;;;5053755;28;19936;-81
2022/08/31 05:55:01;;;;;;;;;;;20.30;99.90;;;;;;5050902;28;20373;-78
2022/08/31 05:57:26;;;;;;;;;;;20.30;99.90;;;;;;5053621;28;19966;-80
2022/08/31 05:59:52;;;;;;;;;;;20.40;99.90;;;;;;5054044;28;20443;-82
2022/08/31 06:02:17;;;;;;;;;;;20.50;99.90;;;;;;5053409;28;19909;-80
2022/08/31 06:04:43;;;;;;;;;;;20.50;99.90;;;;;;5053148;28;20492;-80
2022/08/31 06:07:09;;;;;;;;;;;20.50;99.90;;;;;;5053602;28;19912;-81
2022/08/31 06:09:37;;;;;;;;;;;20.30;99.90;;;;;;5053585;28;19909;-80
2022/08/31 06:12:04;;;;;;;;;;;20.50;99.90;;;;;;5053397;28;19959;-80
2022/08/31 06:14:31;;;;;;;;;;;20.40;99.90;;;;;;5035469;28;20007;-79
2022/08/31 06:16:58;;;;;;;;;;;20.40;99.90;;;;;;5052746;28;19919;-78
2022/08/31 06:19:24;;;;;;;;;;;20.30;99.90;;;;;;5035495;28;19913;-79
2022/08/31 06:21:50;;;;;;;;;;;20.30;99.90;;;;;;5053201;28;19956;-81
2022/08/31 06:24:17;;;;;;;;;;;20.50;99.90;;;;;;5053278;28;19977;-82
2022/08/31 06:26:51;;;;;;;;;;;20.40;99.90;;;;;;5052782;28;19920;-81
2022/08/31 06:29:16;;;;;;;;;;;20.80;99.90;;;;;;5053246;28;20428;-78
2022/08/31 06:31:45;;;;;;;;;;;21.00;99.90;;;;;;5053295;28;20031;-82
2022/08/31 06:34:11;;;;;;;;;;;21.20;99.90;;;;;;5053051;28;19908;-80
2022/08/31 06:36:37;;;;;;;;;;;21.10;99.90;;;;;;5052800;28;19922;-79
2022/08/31 06:39:03;;;;;;;;;;;21.40;99.90;;;;;;5052931;28;20001;-82
2022/08/31 06:41:30;;;;;;;;;;;22.20;99.90;;;;;;5053017;28;19908;-79
2022/08/31 06:43:57;;;;;;;;;;;22.40;99.90;;;;;;5053046;28;20281;-77
2022/08/31 06:46:23;;;;;;;;;;;22.70;99.90;;;;;;5051758;28;20372;-79
2022/08/31 06:48:50;;;;;;;;;;;22.80;99.90;;;;;;5056202;28;19916;-81
2022/08/31 06:51:16;;;;;;;;;;;23.00;99.90;;;;;;5056811;28;19958;-77
2022/08/31 06:53:42;;;;;;;;;;;23.20;99.90;;;;;;5057264;28;19909;-82
2022/08/31 06:56:15;;;;;;;;;;;23.40;99.90;;;;;;5056656;28;19947;-80
2022/08/31 06:58:40;;;;;;;;;;;23.40;99.90;;;;;;5056975;28;19909;-80
2022/08/31 07:01:07;;;;;;;;;;;23.40;99.60;;;;;;5057370;28;19974;-79
2022/08/31 07:03:34;;;;;;;;;;;23.20;99.40;;;;;;5056707;28;19909;-80
2022/08/31 07:06:05;;;;;;;;;;;22.90;99.90;;;;;;5056424;28;20380;-82
2022/08/31 07:08:31;;;;;;;;;;;22.60;99.90;;;;;;5056704;28;19919;-79
2022/08/31 07:10:56;;;;;;;;;;;22.70;99.90;;;;;;5056850;28;20346;-78
2022/08/31 07:13:22;;;;;;;;;;;22.90;99.90;;;;;;5056558;28;19931;-81
2022/08/31 07:15:47;;;;;;;;;;;22.70;99.90;;;;;;5056174;28;19909;-82
2022/08/31 07:18:13;;;;;;;;;;;22.40;99.90;;;;;;5056453;28;19916;-80
2022/08/31 07:20:39;;;;;;;;;;;22.00;99.90;;;;;;5056482;28;19909;-79
2022/08/31 07:23:04;;;;;;;;;;;21.70;99.90;;;;;;5038589;28;19916;-81
2022/08/31 07:25:30;;;;;;;;;;;21.70;99.90;;;;;;5038040;28;19972;-80
2022/08/31 07:27:58;;;;;;;;;;;21.70;99.90;;;;;;5056327;28;20281;-83
2022/08/31 07:30:24;;;;;;;;;;;21.90;99.90;;;;;;5056292;28;19936;-80
2022/08/31 07:32:50;;;;;;;;;;;22.30;99.90;;;;;;5056292;28;19991;-83
2022/08/31 07:35:17;;;;;;;;;;;22.80;99.90;;;;;;5056035;28;19909;-83
2022/08/31 07:43:12;;;;;;;;;;;23.20;99.90;;;;;;5056144;28;19927;-83
2022/08/31 07:45:38;;;;;;;;;;;23.50;99.40;;;;;;5055674;28;19944;-81
2022/08/31 07:48:04;;;;;;;;;;;24.20;98.20;;;;;;5038045;28;19948;-82
2022/08/31 07:50:30;;;;;;;;;;;24.30;97.00;;;;;;5055528;28;19927;-78
2022/08/31 07:52:57;;;;;;;;;;;24.30;96.20;;;;;;5056055;28;19908;-81
2022/08/31 07:55:24;;;;;;;;;;;25.90;93.90;;;;;;5055583;28;19917;-79
2022/08/31 07:57:53;;;;;;;;;;;26.10;91.40;;;;;;5055609;28;20369;-81
2022/08/31 08:00:20;;;;;;;;;;;27.20;91.50;;;;;;5038493;28;20396;-82
2022/08/31 08:02:46;;;;;;;;;;;27.60;88.20;;;;;;5055535;28;19909;-84
2022/08/31 08:05:19;;;;;;;;;;;28.90;85.20;;;;;;5055483;28;19915;-81
2022/08/31 08:07:49;;;;;;;;;;;29.30;80.80;;;;;;5055559;28;19913;-81
2022/08/31 08:10:16;;;;;;;;;;;29.30;79.60;;;;;;5055618;28;19962;-81
2022/08/31 08:12:45;;;;;;;;;;;29.40;80.00;;;;;;5056004;28;19999;-79
2022/08/31 08:15:11;;;;;;;;;;;29.40;77.10;;;;;;5055809;28;19916;-79
2022/08/31 08:17:37;;;;;;;;;;;28.20;78.90;;;;;;5055406;28;19916;-81
2022/08/31 08:20:03;;;;;;;;;;;27.00;81.40;;;;;;5055403;28;19946;-81
2022/08/31 08:22:29;;;;;;;;;;;26.40;83.80;;;;;;5055393;28;20366;-83
2022/08/31 08:24:54;;;;;;;;;;;26.10;84.90;;;;;;5055287;28;19908;-79
2022/08/31 08:27:20;;;;;;;;;;;26.10;86.60;;;;;;5054639;28;19939;-81
2022/08/31 08:29:45;;;;;;;;;;;26.40;85.70;;;;;;5037294;28;19958;-83
2022/08/31 08:32:11;;;;;;;;;;;26.10;85.30;;;;;;5055353;28;19908;-82
2022/08/31 08:34:42;;;;;;;;;;;25.90;86.40;;;;;;5055099;28;19920;-80
2022/08/31 08:37:08;;;;;;;;;;;26.20;86.20;;;;;;5054673;28;19916;-79
2022/08/31 08:39:34;;;;;;;;;;;26.40;85.10;;;;;;5054842;28;19931;-80
2022/08/31 08:42:01;;;;;;;;;;;26.60;84.90;;;;;;5055032;28;20377;-83
2022/08/31 08:44:27;;;;;;;;;;;27.40;84.50;;;;;;5054940;28;19908;-80
2022/08/31 08:46:54;;;;;;;;;;;27.80;81.70;;;;;;5054389;28;19963;-84
2022/08/31 08:49:20;;;;;;;;;;;27.50;81.70;;;;;;5054724;28;19925;-79
2022/08/31 08:51:47;;;;;;;;;;;27.10;81.20;;;;;;5054430;28;19932;-81
2022/08/31 08:54:17;;;;;;;;;;;30.20;76.50;;;;;;5054592;28;19943;-82
2022/08/31 08:56:47;;;;;;;;;;;32.30;69.90;;;;;;5054575;28;19908;-82
2022/08/31 08:59:14;;;;;;;;;;;30.40;70.30;;;;;;5054848;28;19948;-82
2022/08/31 09:01:45;;;;;;;;;;;29.00;73.40;;;;;;5055118;28;19916;-81
2022/08/31 09:04:11;;;;;;;;;;;31.70;70.60;;;;;;5054715;28;19959;-78
2022/08/31 09:06:53;;;;;;;;;;;33.90;65.00;;;;;;5054154;28;20331;-82
2022/08/31 09:09:19;;;;;;;;;;;34.90;61.40;;;;;;5054721;28;19909;-79
2022/08/31 09:11:48;;;;;;;;;;;34.40;60.00;;;;;;5053633;28;19908;-76
2022/08/31 09:14:17;;;;;;;;;;;33.70;62.20;;;;;;5054411;28;19908;-79
2022/08/31 09:16:46;;;;;;;;;;;35.20;59.10;;;;;;5036051;28;19915;-81
2022/08/31 09:19:14;;;;;;;;;;;35.80;58.00;;;;;;5054299;28;20377;-77
2022/08/31 09:21:56;;;;;;;;;;;36.70;56.10;;;;;;5054318;28;19915;-77
2022/08/31 09:24:26;;;;;;;;;;;37.60;55.10;;;;;;5054173;28;19909;-82
2022/08/31 09:26:54;;;;;;;;;;;35.90;54.70;;;;;;5053589;28;19913;-75
2022/08/31 09:29:23;;;;;;;;;;;33.60;57.50;;;;;;5036220;28;20288;-79
2022/08/31 09:31:58;;;;;;;;;;;31.80;59.60;;;;;;5054016;28;19908;-81
2022/08/31 09:34:29;;;;;;;;;;;31.00;61.40;;;;;;5054295;28;19916;-82
2022/08/31 09:37:32;;;;;;;;;;;30.40;62.60;;;;;;5053557;28;20395;-81
2022/08/31 09:40:13;;;;;;;;;;;30.20;62.70;;;;;;5031426;28;19920;-84
2022/08/31 09:42:39;;;;;;;;;;;30.10;63.20;;;;;;5053883;28;19908;-79
2022/08/31 09:45:11;;;;;;;;;;;30.20;63.70;;;;;;5053742;28;19915;-80
2022/08/31 09:47:47;;;;;;;;;;;30.60;62.80;;;;;;5053186;28;20004;-80
2022/08/31 09:50:36;;;;;;;;;;;30.80;62.50;;;;;;5053401;28;20398;-80
2022/08/31 09:56:12;;;;;;;;;;;30.70;62.50;;;;;;5050402;28;19915;-80
2022/08/31 09:58:44;;;;;;;;;;;32.20;61.70;;;;;;5053733;28;19932;-81
2022/08/31 10:01:16;;;;;;;;;;;35.90;56.70;;;;;;5054063;28;19977;-85
2022/08/31 10:03:44;;;;;;;;;;;39.10;53.10;;;;;;5053351;28;19948;-83
2022/08/31 10:06:25;;;;;;;;;;;40.30;50.00;;;;;;5053167;28;20369;-77
2022/08/31 10:08:58;;;;;;;;;;;37.90;50.20;;;;;;5053349;28;19920;-83
2022/08/31 10:11:28;;;;;;;;;;;39.70;50.60;;;;;;5053053;28;19916;-80
2022/08/31 10:14:02;;;;;;;;;;;40.60;47.80;;;;;;5053296;28;19909;-81
2022/08/31 10:16:36;;;;;;;;;;;41.90;47.00;;;;;;5052898;28;19920;-80
2022/08/31 10:19:03;;;;;;;;;;;42.30;45.50;;;;;;5053305;28;19962;-80
2022/08/31 10:21:50;;;;;;;;;;;40.40;46.60;;;;;;5053244;28;19948;-80
2022/08/31 10:24:31;;;;;;;;;;;37.30;48.60;;;;;;5052931;28;19909;-81
2022/08/31 10:27:03;;;;;;;;;;;35.60;49.80;;;;;;5034768;28;20344;-81
2022/08/31 10:29:34;;;;;;;;;;;33.40;52.80;;;;;;5053290;28;19958;-83
2022/08/31 10:32:02;;;;;;;;;;;32.20;54.80;;;;;;5053142;28;19909;-81
2022/08/31 10:37:16;;;;;;;;;;;31.10;56.40;;;;;;5052892;28;19981;-79
2022/08/31 10:39:45;;;;;;;;;;;31.20;57.00;;;;;;5052828;28;19909;-80
2022/08/31 10:42:16;;;;;;;;;;;31.20;57.00;;;;;;5053041;28;19916;-82
2022/08/31 10:44:55;;;;;;;;;;;34.40;54.70;;;;;;5053062;28;19954;-81
2022/08/31 10:47:22;;;;;;;;;;;34.10;52.40;;;;;;5034647;28;19936;-80
2022/08/31 10:49:58;;;;;;;;;;;32.50;54.40;;;;;;5052864;28;19920;-78
2022/08/31 10:52:31;;;;;;;;;;;31.60;55.50;;;;;;5053115;28;19916;-80
2022/08/31 10:55:04;;;;;;;;;;;30.80;56.60;;;;;;5034941;28;19995;-83
2022/08/31 10:57:48;;;;;;;;;;;30.80;57.00;;;;;;5052526;28;19947;-81
2022/08/31 11:00:47;;;;;;;;;;;31.10;56.90;;;;;;5052775;28;19909;-83
2022/08/31 11:03:31;;;;;;;;;;;34.70;54.70;;;;;;5052673;28;19959;-78
2022/08/31 11:06:23;;;;;;;;;;;35.10;51.90;;;;;;5051761;28;19913;-80
2022/08/31 11:08:56;;;;;;;;;;;33.60;54.20;;;;;;5048719;28;20003;-81
2022/08/31 11:11:31;;;;;;;;;;;33.50;54.20;;;;;;5053101;28;20024;-82
2022/08/31 11:14:02;;;;;;;;;;;36.80;52.70;;;;;;5052750;28;19909;-84
2022/08/31 11:16:28;;;;;;;;;;;39.20;49.10;;;;;;5052207;28;19916;-83
2022/08/31 11:19:17;;;;;;;;;;;38.50;48.80;;;;;;5052889;28;19909;-83
2022/08/31 11:21:58;;;;;;;;;;;36.90;49.60;;;;;;5052764;28;19948;-81
2022/08/31 11:24:54;;;;;;;;;;;37.10;50.00;;;;;;5052486;28;19912;-82
2022/08/31 11:27:25;;;;;;;;;;;36.50;50.80;;;;;;5043010;28;20331;-82
2022/08/31 11:30:09;;;;;;;;;;;36.10;50.00;;;;;;5052646;28;20035;-79
2022/08/31 11:32:35;;;;;;;;;;;35.80;51.40;;;;;;5052968;28;20349;-84
2022/08/31 11:35:07;;;;;;;;;;;39.00;49.80;;;;;;5055938;28;19909;-81
2022/08/31 11:37:49;;;;;;;;;;;39.10;48.90;;;;;;5047579;28;20440;-82
2022/08/31 11:40:40;;;;;;;;;;;40.70;47.20;;;;;;5056159;28;19908;-84
2022/08/31 11:43:07;;;;;;;;;;;40.30;47.00;;;;;;5055846;28;19909;-79
2022/08/31 11:45:36;;;;;;;;;;;38.30;47.90;;;;;;5055742;28;19909;-79
2022/08/31 11:48:03;;;;;;;;;;;36.60;49.40;;;;;;5055471;28;20374;-81
2022/08/31 11:50:35;;;;;;;;;;;35.20;51.00;;;;;;5055339;28;20341;-81
2022/08/31 11:53:18;;;;;;;;;;;36.50;51.40;;;;;;5055863;28;19916;-84
2022/08/31 11:55:48;;;;;;;;;;;40.20;48.70;;;;;;5056048;28;19915;-81
2022/08/31 11:58:15;;;;;;;;;;;43.00;45.80;;;;;;5055360;28;20351;-80
2022/08/31 12:00:45;;;;;;;;;;;45.60;44.50;;;;;;5056299;28;19916;-80
2022/08/31 12:03:30;;;;;;;;;;;46.70;43.30;;;;;;5055640;28;19909;-81
2022/08/31 12:05:56;;;;;;;;;;;47.20;42.40;;;;;;5055876;28;20297;-83
2022/08/31 12:08:33;;;;;;;;;;;46.70;41.80;;;;;;5055241;28;19913;-83
2022/08/31 12:11:05;;;;;;;;;;;47.70;41.00;;;;;;5055795;28;19999;-82
2022/08/31 12:13:35;;;;;;;;;;;45.70;41.00;;;;;;5055649;28;19971;-80
2022/08/31 12:16:02;;;;;;;;;;;45.00;42.40;;;;;;5055581;28;20011;-80
2022/08/31 12:18:46;;;;;;;;;;;46.30;41.60;;;;;;5055393;28;19909;-84
2022/08/31 12:24:23;;;;;;;;;;;44.60;42.00;;;;;;5055208;28;20327;-82
2022/08/31 12:27:03;;;;;;;;;;;43.00;41.80;;;;;;5054837;28;19908;-79
2022/08/31 12:29:33;;;;;;;;;;;43.70;43.30;;;;;;5055269;28;19955;-79
2022/08/31 12:32:14;;;;;;;;;;;46.90;41.50;;;;;;5055128;28;19909;-82
2022/08/31 12:34:43;;;;;;;;;;;49.70;39.70;;;;;;5054975;28;20395;-85
2022/08/31 12:37:25;;;;;;;;;;;49.80;39.10;;;;;;5054328;28;19913;-81
2022/08/31 12:40:06;;;;;;;;;;;49.60;38.70;;;;;;5054719;28;19912;-84
2022/08/31 12:42:33;;;;;;;;;;;50.30;38.30;;;;;;5054940;28;19996;-81
2022/08/31 12:44:58;;;;;;;;;;;51.00;38.10;;;;;;5053719;28;19916;-82
2022/08/31 12:47:36;;;;;;;;;;;51.00;37.50;;;;;;5054463;28;20373;-83
2022/08/31 12:50:08;;;;;;;;;;;51.10;37.40;;;;;;5054604;28;20006;-83
2022/08/31 12:52:54;;;;;;;;;;;46.70;37.80;;;;;;5054843;28;20387;-82
2022/08/31 12:55:22;;;;;;;;;;;43.80;41.10;;;;;;5054901;28;19909;-79
2022/08/31 12:57:57;;;;;;;;;;;44.40;41.90;;;;;;5054213;28;19920;-81
2022/08/31 13:00:28;;;;;;;;;;;47.60;39.10;;;;;;5054692;28;20387;-81
2022/08/31 13:02:58;;;;;;;;;;;44.70;39.10;;;;;;5054902;28;19909;-80
2022/08/31 13:05:31;;;;;;;;;;;44.60;41.10;;;;;;5054602;28;19909;-85
2022/08/31 13:07:57;;;;;;;;;;;47.80;39.80;;;;;;5054392;28;19917;-83
2022/08/31 13:10:29;;;;;;;;;;;50.70;38.20;;;;;;5054538;28;20004;-83
2022/08/31 13:13:01;;;;;;;;;;;53.60;37.60;;;;;;5054495;28;20007;-85
2022/08/31 13:15:28;;;;;;;;;;;52.90;36.60;;;;;;5054277;28;20055;-81
2022/08/31 13:17:54;;;;;;;;;;;47.90;37.10;;;;;;5053747;28;19919;-82
2022/08/31 13:20:20;;;;;;;;;;;43.70;39.80;;;;;;5054355;28;19909;-80
2022/08/31 13:22:54;;;;;;;;;;;42.10;41.60;;;;;;5054219;28;20399;-79
2022/08/31 13:25:38;;;;;;;;;;;41.60;41.60;;;;;;5054352;28;19909;-80
2022/08/31 13:28:03;;;;;;;;;;;40.40;42.80;;;;;;5053657;28;19915;-83
2022/08/31 13:30:34;;;;;;;;;;;40.30;43.40;;;;;;5053944;28;19992;-82
2022/08/31 13:33:07;;;;;;;;;;;43.00;40.80;;;;;;5054135;28;20377;-79
2022/08/31 13:35:35;;;;;;;;;;;41.70;41.70;;;;;;5054040;28;20003;-80
2022/08/31 13:38:03;;;;;;;;;;;41.90;42.10;;;;;;5053416;28;19913;-82
2022/08/31 13:40:30;;;;;;;;;;;42.10;41.70;;;;;;5035782;28;20277;-77
2022/08/31 13:42:56;;;;;;;;;;;40.30;42.30;;;;;;5053567;28;19934;-80
2022/08/31 13:45:25;;;;;;;;;;;38.80;43.70;;;;;;5053620;28;20332;-79
2022/08/31 13:47:52;;;;;;;;;;;37.70;44.70;;;;;;5053130;28;20043;-78
2022/08/31 13:50:19;;;;;;;;;;;36.70;45.50;;;;;;5035287;28;20004;-79
2022/08/31 13:52:48;;;;;;;;;;;36.60;46.40;;;;;;5053710;28;19916;-79
2022/08/31 13:55:26;;;;;;;;;;;36.30;46.40;;;;;;5053655;28;19961;-83
2022/08/31 13:57:58;;;;;;;;;;;39.50;44.10;;;;;;5052958;28;19919;-80
2022/08/31 14:00:33;;;;;;;;;;;38.70;43.70;;;;;;5035812;28;19909;-82
2022/08/31 14:03:18;;;;;;;;;;;37.90;44.80;;;;;;5036053;28;19916;-85
2022/08/31 14:05:43;;;;;;;;;;;38.80;45.40;;;;;;5053562;28;19909;-81
2022/08/31 14:08:16;;;;;;;;;;;38.30;44.30;;;;;;5052903;28;19916;-80
2022/08/31 14:10:46;;;;;;;;;;;37.00;45.50;;;;;;5053402;28;20007;-82
2022/08/31 14:13:12;;;;;;;;;;;36.00;46.40;;;;;;5053354;28;19909;-82
2022/08/31 14:15:44;;;;;;;;;;;35.20;47.40;;;;;;5053221;28;19916;-82
2022/08/31 14:18:15;;;;;;;;;;;35.10;48.00;;;;;;5052566;28;19919;-81
2022/08/31 14:20:46;;;;;;;;;;;35.20;47.90;;;;;;5035394;28;19916;-80
2022/08/31 14:23:24;;;;;;;;;;;35.50;47.80;;;;;;5053251;28;19913;-82
2022/08/31 14:25:51;;;;;;;;;;;35.70;47.20;;;;;;5053266;28;19916;-78
2022/08/31 14:28:16;;;;;;;;;;;36.10;47.00;;;;;;5052807;28;20467;-79
2022/08/31 14:30:42;;;;;;;;;;;36.40;47.00;;;;;;5053345;28;19940;-79
2022/08/31 14:33:15;;;;;;;;;;;36.20;46.90;;;;;;5053117;28;20280;-79
2022/08/31 14:35:41;;;;;;;;;;;35.80;47.00;;;;;;5053368;28;19944;-82
2022/08/31 14:38:07;;;;;;;;;;;36.00;47.50;;;;;;5052601;28;19924;-79
2022/08/31 14:40:33;;;;;;;;;;;38.40;46.50;;;;;;5053238;28;19909;-79
2022/08/31 14:42:59;;;;;;;;;;;38.20;44.80;;;;;;5053106;28;19908;-81
2022/08/31 14:45:25;;;;;;;;;;;38.40;45.30;;;;;;5053026;28;19915;-81
2022/08/31 14:47:51;;;;;;;;;;;38.20;44.90;;;;;;5052704;28;19916;-80
2022/08/31 14:50:20;;;;;;;;;;;37.20;46.00;;;;;;5052590;28;19975;-82
2022/08/31 14:52:53;;;;;;;;;;;37.50;46.20;;;;;;5053013;28;19909;-82
2022/08/31 14:55:20;;;;;;;;;;;40.50;44.30;;;;;;5052838;28;19913;-82
2022/08/31 14:57:49;;;;;;;;;;;42.70;43.20;;;;;;5043357;28;20289;-82
2022/08/31 15:00:20;;;;;;;;;;;42.50;41.90;;;;;;5032999;28;19944;-81
2022/08/31 15:02:46;;;;;;;;;;;40.40;42.50;;;;;;5033490;28;19910;-83
2022/08/31 15:05:13;;;;;;;;;;;38.40;44.10;;;;;;5015311;28;20275;-80
2022/08/31 15:07:40;;;;;;;;;;;36.90;45.80;;;;;;5015004;28;19999;-81
2022/08/31 15:10:07;;;;;;;;;;;37.70;45.70;;;;;;5036581;28;19909;-81